createdAt,value
2023-03-06T00:00:25.117Z,6.45
2023-03-06T00:02:52.327Z,7.07
2023-03-06T00:05:19.240Z,9.85
2023-03-06T00:07:45.875Z,8.10
2023-03-06T00:10:18.586Z,10.23
2023-03-06T00:12:45.605Z,7.28
2023-03-06T00:15:13.546Z,7.68
2023-03-06T00:17:40.936Z,6.85
2023-03-06T00:20:10.399Z,9.68
2023-03-06T00:22:37.167Z,5.55
2023-03-06T00:25:05.084Z,7.70
2023-03-06T00:27:32.367Z,4.50
2023-03-06T00:30:00.369Z,6.32
2023-03-06T00:32:28.772Z,6.07
2023-03-06T00:34:56.581Z,7.22
2023-03-06T00:37:24.913Z,6.75
2023-03-06T00:39:51.809Z,6.97
2023-03-06T00:42:19.408Z,6.47
2023-03-06T00:44:46.408Z,9.55
2023-03-06T00:47:17.140Z,11.35
2023-03-06T00:49:47.135Z,9.73
2023-03-06T00:52:14.005Z,7.10
2023-03-06T00:54:40.991Z,5.05
2023-03-06T00:57:08.573Z,7.00
2023-03-06T00:59:35.740Z,3.67
2023-03-06T01:02:03.062Z,7.43
2023-03-06T01:04:30.025Z,7.22
2023-03-06T01:06:56.886Z,7.80
2023-03-06T01:09:24.362Z,9.07
2023-03-06T01:11:50.977Z,6.90
2023-03-06T01:14:19.574Z,7.53
2023-03-06T01:16:47.474Z,7.90
2023-03-06T01:19:14.753Z,6.07
2023-03-06T01:21:41.396Z,7.70
2023-03-06T01:24:08.265Z,7.25
2023-03-06T01:26:35.216Z,6.80
2023-03-06T01:29:02.291Z,7.32
2023-03-06T01:31:29.242Z,8.55
2023-03-06T01:33:56.002Z,8.60
2023-03-06T01:36:22.715Z,7.82
2023-03-06T01:38:49.410Z,7.15
2023-03-06T01:41:16.333Z,7.13
2023-03-06T01:43:46.069Z,7.82
2023-03-06T01:46:34.609Z,6.95
2023-03-06T01:49:04.539Z,6.78
2023-03-06T01:51:54.988Z,6.97
2023-03-06T01:54:27.432Z,6.43
2023-03-06T01:57:02.349Z,7.07
2023-03-06T01:59:30.182Z,5.15
2023-03-06T02:01:58.731Z,6.78
2023-03-06T02:04:25.610Z,5.40
2023-03-06T02:06:52.527Z,4.88
2023-03-06T02:09:19.333Z,6.50
2023-03-06T02:11:46.415Z,5.93
2023-03-06T02:14:16.068Z,4.55
2023-03-06T02:16:43.594Z,7.15
2023-03-06T02:19:29.040Z,7.25
2023-03-06T02:21:56.167Z,4.05
2023-03-06T02:24:33.195Z,4.93
2023-03-06T02:27:01.379Z,5.15
2023-03-06T02:29:30.130Z,4.80
2023-03-06T02:31:56.886Z,5.30
2023-03-06T02:34:23.638Z,3.42
2023-03-06T02:37:02.946Z,5.10
2023-03-06T02:39:33.219Z,3.65
2023-03-06T02:42:00.026Z,2.70
2023-03-06T02:44:28.186Z,4.32
2023-03-06T02:46:54.869Z,4.95
2023-03-06T02:49:21.536Z,4.85
2023-03-06T02:51:48.261Z,4.78
2023-03-06T02:54:15.073Z,2.97
2023-03-06T02:56:41.700Z,3.67
2023-03-06T02:59:08.375Z,2.28
2023-03-06T03:01:35.250Z,3.10
2023-03-06T03:04:01.962Z,2.40
2023-03-06T03:06:28.641Z,4.05
2023-03-06T03:08:55.357Z,2.40
2023-03-06T03:11:22.044Z,2.17
2023-03-06T03:13:48.773Z,1.98
2023-03-06T03:16:15.881Z,2.58
2023-03-06T03:18:48.131Z,2.28
2023-03-06T03:21:15.910Z,2.67
2023-03-06T03:23:43.127Z,3.83
2023-03-06T03:26:18.764Z,2.72
2023-03-06T03:28:45.789Z,1.73
2023-03-06T03:31:12.928Z,2.10
2023-03-06T03:33:41.063Z,2.15
2023-03-06T03:36:08.394Z,1.77
2023-03-06T03:38:36.217Z,1.52
2023-03-06T03:41:03.977Z,1.80
2023-03-06T03:43:31.030Z,2.00
2023-03-06T03:45:57.743Z,1.55
2023-03-06T03:48:24.433Z,1.90
2023-03-06T03:50:51.328Z,1.98
2023-03-06T03:53:18.094Z,1.10
2023-03-06T03:55:47.567Z,1.50
2023-03-06T03:58:14.308Z,1.58
2023-03-06T04:00:40.983Z,1.10
2023-03-06T04:03:07.640Z,1.67
2023-03-06T04:05:34.335Z,1.67
2023-03-06T04:08:03.328Z,1.42
2023-03-06T04:10:30.183Z,1.95
2023-03-06T04:12:57.310Z,1.33
2023-03-06T04:15:23.955Z,3.00
2023-03-06T04:17:50.656Z,1.83
2023-03-06T04:20:17.581Z,1.90
2023-03-06T04:22:44.270Z,2.08
2023-03-06T04:25:10.983Z,1.63
2023-03-06T04:27:37.672Z,2.17
2023-03-06T04:30:06.690Z,1.35
2023-03-06T04:32:33.483Z,2.22
2023-03-06T04:35:00.262Z,1.25
2023-03-06T04:37:27.228Z,1.30
2023-03-06T04:39:53.923Z,1.45
2023-03-06T04:42:21.146Z,1.42
2023-03-06T04:44:47.880Z,2.33
2023-03-06T04:47:14.537Z,1.75
2023-03-06T04:49:41.267Z,1.30
2023-03-06T04:52:07.955Z,2.42
2023-03-06T04:54:34.668Z,1.15
2023-03-06T04:57:01.336Z,1.48
2023-03-06T04:59:28.005Z,1.33
2023-03-06T05:01:54.789Z,1.20
2023-03-06T05:04:21.521Z,1.45
2023-03-06T05:06:48.183Z,1.65
2023-03-06T05:09:14.838Z,1.20
2023-03-06T05:11:41.525Z,1.23
2023-03-06T05:14:08.192Z,2.00
2023-03-06T05:16:34.919Z,1.70
2023-03-06T05:19:01.641Z,2.92
2023-03-06T05:21:28.399Z,1.10
2023-03-06T05:23:55.121Z,1.65
2023-03-06T05:26:21.822Z,1.17
2023-03-06T05:28:48.488Z,1.55
2023-03-06T05:31:15.128Z,1.50
2023-03-06T05:33:42.011Z,1.95
2023-03-06T05:36:09.777Z,1.75
2023-03-06T05:38:36.501Z,1.25
2023-03-06T05:41:03.476Z,1.55
2023-03-06T05:43:30.231Z,1.77
2023-03-06T05:46:02.753Z,1.10
2023-03-06T05:48:29.917Z,1.50
2023-03-06T05:50:58.155Z,1.30
2023-03-06T05:53:25.311Z,1.67
2023-03-06T05:56:04.776Z,1.52
2023-03-06T05:58:32.821Z,1.45
2023-03-06T06:00:59.726Z,1.65
2023-03-06T06:03:26.725Z,1.63
2023-03-06T06:05:53.436Z,1.35
2023-03-06T06:08:21.196Z,1.98
2023-03-06T06:10:47.895Z,2.10
2023-03-06T06:13:14.564Z,1.10
2023-03-06T06:15:41.404Z,1.30
2023-03-06T06:18:08.221Z,2.47
2023-03-06T06:20:36.853Z,1.50
2023-03-06T06:23:03.520Z,1.20
2023-03-06T06:25:30.164Z,1.58
2023-03-06T06:27:57.882Z,1.40
2023-03-06T06:30:24.690Z,1.30
2023-03-06T06:32:51.387Z,1.10
2023-03-06T06:35:18.071Z,1.60
2023-03-06T06:37:44.742Z,1.52
2023-03-06T06:40:12.015Z,2.22
2023-03-06T06:42:40.243Z,1.40
2023-03-06T06:45:09.120Z,3.75
2023-03-06T06:47:38.605Z,1.83
2023-03-06T06:50:06.672Z,2.08
2023-03-06T06:52:33.410Z,2.80
2023-03-06T06:55:00.132Z,1.65
2023-03-06T06:57:26.817Z,1.30
2023-03-06T06:59:54.335Z,1.40
2023-03-06T07:02:22.398Z,1.10
2023-03-06T07:05:03.151Z,1.77
2023-03-06T07:07:33.781Z,2.40
2023-03-06T07:10:00.677Z,3.10
2023-03-06T07:12:27.464Z,1.40
2023-03-06T07:14:54.100Z,1.20
2023-03-06T07:17:20.806Z,1.65
2023-03-06T07:19:48.344Z,1.63
2023-03-06T07:22:15.065Z,2.55
2023-03-06T07:24:41.830Z,3.55
2023-03-06T07:27:08.534Z,1.83
2023-03-06T07:29:35.705Z,2.33
2023-03-06T07:32:02.462Z,4.35
2023-03-06T07:34:29.589Z,2.97
2023-03-06T07:36:56.459Z,6.45
2023-03-06T07:39:23.169Z,2.42
2023-03-06T07:41:49.859Z,1.63
2023-03-06T07:44:16.590Z,2.25
2023-03-06T07:46:43.308Z,3.70
2023-03-06T07:49:10.007Z,2.15
2023-03-06T07:51:36.801Z,2.92
2023-03-06T07:54:03.546Z,3.15
2023-03-06T07:56:30.221Z,7.13
2023-03-06T07:58:57.212Z,4.55
2023-03-06T08:01:24.398Z,7.57
2023-03-06T08:03:52.042Z,3.35
2023-03-06T08:06:24.303Z,6.05
2023-03-06T08:08:52.906Z,2.20
2023-03-06T08:11:22.239Z,3.97
2023-03-06T08:13:49.452Z,5.03
2023-03-06T08:16:17.670Z,3.58
2023-03-06T08:18:46.382Z,6.20
2023-03-06T08:21:16.739Z,7.30
2023-03-06T08:23:44.445Z,8.10
2023-03-06T08:26:13.973Z,2.58
2023-03-06T08:28:41.334Z,3.88
2023-03-06T08:31:31.312Z,5.15
2023-03-06T08:34:00.369Z,6.47
2023-03-06T08:36:27.073Z,6.22
2023-03-06T08:38:53.962Z,8.93
2023-03-06T08:41:21.798Z,5.70
2023-03-06T08:43:48.932Z,6.28
2023-03-06T08:46:18.801Z,5.93
2023-03-06T08:48:47.875Z,8.38
2023-03-06T08:51:16.510Z,7.63
2023-03-06T08:53:44.364Z,5.30
2023-03-06T08:56:20.180Z,6.78
2023-03-06T08:58:48.052Z,6.78
2023-03-06T09:01:20.158Z,7.20
2023-03-06T09:03:47.346Z,11.30
2023-03-06T09:06:14.414Z,6.88
2023-03-06T09:08:44.818Z,6.50
2023-03-06T09:11:14.081Z,7.82
2023-03-06T09:13:41.831Z,9.13
2023-03-06T09:16:10.066Z,6.72
2023-03-06T09:18:37.108Z,4.13
2023-03-06T09:21:04.980Z,3.80
2023-03-06T09:23:31.704Z,6.28
2023-03-06T09:26:00.100Z,3.25
2023-03-06T09:28:27.382Z,4.63
2023-03-06T09:30:54.396Z,6.32
2023-03-06T09:33:22.444Z,8.38
2023-03-06T09:35:52.154Z,8.82
2023-03-06T09:38:20.988Z,6.38
2023-03-06T09:41:02.905Z,5.88
2023-03-06T09:43:39.349Z,7.97
2023-03-06T09:46:36.846Z,9.02
2023-03-06T09:49:12.235Z,6.15
2023-03-06T09:52:00.130Z,6.38
2023-03-06T09:55:16.431Z,11.73
2023-03-06T09:58:04.568Z,10.20
2023-03-06T10:00:40.137Z,9.40
2023-03-06T10:03:21.106Z,7.78
2023-03-06T10:05:53.298Z,5.68
2023-03-06T10:08:27.447Z,10.57
2023-03-06T10:11:03.781Z,5.88
2023-03-06T10:13:33.301Z,5.95
2023-03-06T10:16:32.309Z,8.70
2023-03-06T10:19:03.525Z,7.03
2023-03-06T10:21:44.094Z,5.07
2023-03-06T10:24:37.509Z,10.55
2023-03-06T10:27:21.907Z,4.35
2023-03-06T10:30:03.286Z,6.90
2023-03-06T10:32:49.837Z,6.88
2023-03-06T10:35:41.775Z,13.00
2023-03-06T10:38:31.891Z,5.15
2023-03-06T10:41:10.846Z,15.25
2023-03-06T10:43:40.939Z,5.53
2023-03-06T10:46:10.022Z,5.80
2023-03-06T10:48:40.884Z,3.95
2023-03-06T10:51:22.349Z,3.72
2023-03-06T10:53:57.248Z,4.43
2023-03-06T10:56:28.548Z,8.95
2023-03-06T10:59:15.041Z,4.35
2023-03-06T11:02:24.100Z,8.82
2023-03-06T11:04:54.958Z,7.40
2023-03-06T11:07:25.951Z,5.05
2023-03-06T11:09:58.949Z,5.95
2023-03-06T11:12:34.476Z,3.78
2023-03-06T11:15:07.228Z,6.15
2023-03-06T11:17:37.505Z,11.77
2023-03-06T11:20:31.762Z,9.55
2023-03-06T11:23:35.106Z,7.03
2023-03-06T11:26:05.033Z,7.05
2023-03-06T11:28:47.069Z,6.28
2023-03-06T11:31:21.145Z,6.38
2023-03-06T11:33:54.971Z,7.93
2023-03-06T11:36:27.602Z,5.90
2023-03-06T11:38:55.270Z,11.50
2023-03-06T11:41:50.126Z,10.18
2023-03-06T11:44:28.441Z,5.43
2023-03-06T11:47:15.001Z,10.00
2023-03-06T11:49:46.833Z,12.95
2023-03-06T11:52:34.792Z,9.23
2023-03-06T11:55:01.644Z,10.23
2023-03-06T11:58:15.001Z,10.70
2023-03-06T12:00:59.877Z,5.60
2023-03-06T12:03:29.657Z,7.47
2023-03-06T12:06:30.451Z,8.18
2023-03-06T12:09:12.643Z,5.28
2023-03-06T12:12:08.177Z,7.35
2023-03-06T12:15:08.920Z,7.97
2023-03-06T12:18:00.489Z,6.65
2023-03-06T12:20:27.177Z,5.25
2023-03-06T12:23:15.060Z,4.72
2023-03-06T12:25:45.220Z,4.28
2023-03-06T12:28:40.828Z,5.82
2023-03-06T12:31:44.767Z,6.70
2023-03-06T12:37:08.735Z,4.50
2023-03-06T12:39:47.306Z,5.20
2023-03-06T12:42:31.281Z,4.47
2023-03-06T12:45:22.531Z,3.08
2023-03-06T12:47:51.471Z,3.72
2023-03-06T12:50:31.206Z,7.63
2023-03-06T12:53:04.100Z,3.53
2023-03-06T12:55:41.079Z,8.25
2023-03-06T12:58:29.835Z,7.43
2023-03-06T13:01:08.778Z,8.07
2023-03-06T13:03:49.456Z,3.85
2023-03-06T13:06:39.231Z,6.80
2023-03-06T13:09:40.938Z,6.40
2023-03-06T13:12:27.942Z,6.57
2023-03-06T13:15:19.035Z,2.58
2023-03-06T13:17:45.913Z,8.13
2023-03-06T13:20:15.692Z,5.70
2023-03-06T13:22:44.456Z,5.40
2023-03-06T13:25:17.100Z,4.07
2023-03-06T13:27:56.005Z,4.60
2023-03-06T13:30:43.335Z,3.30
2023-03-06T13:33:30.082Z,3.05
2023-03-06T13:35:58.285Z,7.32
2023-03-06T13:38:40.201Z,3.55
2023-03-06T13:41:25.259Z,7.93
2023-03-06T13:43:57.586Z,2.53
2023-03-06T13:46:29.134Z,2.53
2023-03-06T13:49:10.801Z,7.60
2023-03-06T13:51:54.579Z,4.07
2023-03-06T13:54:51.949Z,7.85
2023-03-06T13:57:21.710Z,4.30
2023-03-06T14:00:09.654Z,4.45
2023-03-06T14:02:55.813Z,4.25
2023-03-06T14:05:23.169Z,4.63
2023-03-06T14:08:12.324Z,3.72
2023-03-06T14:10:40.064Z,2.08
2023-03-06T14:13:23.637Z,3.40
2023-03-06T14:15:52.793Z,2.15
2023-03-06T14:18:26.478Z,3.17
2023-03-06T14:21:04.794Z,5.63
2023-03-06T14:23:35.592Z,6.47
2023-03-06T14:26:17.565Z,4.72
2023-03-06T14:28:53.774Z,3.97
2023-03-06T14:31:22.794Z,4.57
2023-03-06T14:33:53.027Z,7.32
2023-03-06T14:36:29.042Z,4.57
2023-03-06T14:39:02.599Z,6.38
2023-03-06T14:41:32.198Z,9.60
2023-03-06T14:44:16.462Z,6.50
2023-03-06T14:46:44.223Z,5.07
2023-03-06T14:49:16.022Z,6.90
2023-03-06T14:51:45.987Z,6.95
2023-03-06T14:54:22.653Z,9.18
2023-03-06T14:56:53.355Z,4.80
2023-03-06T14:59:28.542Z,3.97
2023-03-06T15:02:02.819Z,5.95
2023-03-06T15:04:39.154Z,4.68
2023-03-06T15:07:16.200Z,6.28
2023-03-06T15:09:47.680Z,2.58
2023-03-06T15:12:34.286Z,2.70
2023-03-06T15:15:23.683Z,3.95
2023-03-06T15:17:50.488Z,4.50
2023-03-06T15:20:52.467Z,4.93
2023-03-06T15:23:27.090Z,7.22
2023-03-06T15:25:59.606Z,5.88
2023-03-06T15:28:34.730Z,6.38
2023-03-06T15:31:10.881Z,5.38
2023-03-06T15:33:37.968Z,4.15
2023-03-06T15:36:06.539Z,5.90
2023-03-06T15:38:42.032Z,6.20
2023-03-06T15:41:27.139Z,2.88
2023-03-06T15:43:54.018Z,7.25
2023-03-06T15:46:20.688Z,10.50
2023-03-06T15:49:01.164Z,6.40
2023-03-06T15:51:30.652Z,6.25
2023-03-06T15:54:09.907Z,10.27
2023-03-06T15:56:41.053Z,5.90
2023-03-06T15:59:10.323Z,10.77
2023-03-06T16:01:37.610Z,9.73
2023-03-06T16:04:04.484Z,9.35
2023-03-06T16:06:31.289Z,9.05
2023-03-06T16:08:57.947Z,9.82
2023-03-06T16:11:41.937Z,6.85
2023-03-06T16:14:19.010Z,9.77
2023-03-06T16:16:46.178Z,9.82
2023-03-06T16:19:25.964Z,8.40
2023-03-06T16:21:54.483Z,9.52
2023-03-06T16:24:21.190Z,11.00
2023-03-06T16:26:53.712Z,9.48
2023-03-06T16:29:26.039Z,12.57
2023-03-06T16:31:55.436Z,10.43
2023-03-06T16:34:22.774Z,15.80
2023-03-06T16:36:49.837Z,17.25
2023-03-06T16:39:21.456Z,20.92
2023-03-06T16:41:49.512Z,29.40
2023-03-06T16:44:16.530Z,19.25
2023-03-06T16:46:45.994Z,24.55
2023-03-06T16:49:24.683Z,16.52
2023-03-06T16:51:52.178Z,16.23
2023-03-06T16:54:19.564Z,12.48
2023-03-06T16:56:46.505Z,11.18
2023-03-06T16:59:13.545Z,11.57
2023-03-06T17:01:43.036Z,10.27
2023-03-06T17:04:10.406Z,11.10
2023-03-06T17:06:38.199Z,8.77
2023-03-06T17:09:05.265Z,12.30
2023-03-06T17:11:31.979Z,14.43
2023-03-06T17:13:58.671Z,22.35
2023-03-06T17:16:25.405Z,10.23
2023-03-06T17:18:52.647Z,10.57
2023-03-06T17:21:19.491Z,12.00
2023-03-06T17:23:46.337Z,14.75
2023-03-06T17:26:20.917Z,13.52
2023-03-06T17:28:48.392Z,10.45
2023-03-06T17:31:23.285Z,14.48
2023-03-06T17:33:51.479Z,12.68
2023-03-06T17:36:19.472Z,11.30
2023-03-06T17:38:47.147Z,14.43
2023-03-06T17:41:14.163Z,7.22
2023-03-06T17:43:41.223Z,8.15
2023-03-06T17:46:13.385Z,13.00
2023-03-06T17:48:40.213Z,9.73
2023-03-06T17:51:07.630Z,8.73
2023-03-06T17:53:34.664Z,11.30
2023-03-06T17:56:04.684Z,11.35
2023-03-06T17:58:32.320Z,16.23
2023-03-06T18:00:59.636Z,16.17
2023-03-06T18:03:26.553Z,14.02
2023-03-06T18:06:00.678Z,11.77
2023-03-06T18:08:27.484Z,16.33
2023-03-06T18:11:04.303Z,14.68
2023-03-06T18:13:32.238Z,12.82
2023-03-06T18:15:59.946Z,9.52
2023-03-06T18:18:28.287Z,12.48
2023-03-06T18:20:55.457Z,9.52
2023-03-06T18:23:22.793Z,17.10
2023-03-06T18:25:50.434Z,10.20
2023-03-06T18:28:17.115Z,10.07
2023-03-06T18:30:43.796Z,7.10
2023-03-06T18:33:10.709Z,15.18
2023-03-06T18:35:37.861Z,6.80
2023-03-06T18:38:04.605Z,9.88
2023-03-06T18:40:31.330Z,6.32
2023-03-06T18:42:58.056Z,10.30
2023-03-06T18:45:24.872Z,9.43
2023-03-06T18:47:51.585Z,13.55
2023-03-06T18:50:18.335Z,32.88
2023-03-06T18:52:45.148Z,13.90
2023-03-06T18:55:12.823Z,9.95
2023-03-06T18:57:39.809Z,7.80
2023-03-06T19:00:08.420Z,8.13
2023-03-06T19:02:35.128Z,10.73
2023-03-06T19:05:01.857Z,14.60
2023-03-06T19:07:29.025Z,20.27
2023-03-06T19:09:55.976Z,11.18
2023-03-06T19:12:24.081Z,13.25
2023-03-06T19:14:52.070Z,12.32
2023-03-06T19:17:19.385Z,10.70
2023-03-06T19:19:50.702Z,13.30
2023-03-06T19:22:18.622Z,10.75
2023-03-06T19:24:47.022Z,11.80
2023-03-06T19:27:13.830Z,9.68
2023-03-06T19:29:40.512Z,10.80
2023-03-06T19:32:07.461Z,10.95
2023-03-06T19:34:34.200Z,9.27
2023-03-06T19:37:00.864Z,6.20
2023-03-06T19:39:27.575Z,6.45
2023-03-06T19:41:54.279Z,7.45
2023-03-06T19:44:20.951Z,10.57
2023-03-06T19:46:47.644Z,12.25
2023-03-06T19:49:16.986Z,8.25
2023-03-06T19:51:44.382Z,7.50
2023-03-06T19:54:12.494Z,9.68
2023-03-06T19:56:39.800Z,10.73
2023-03-06T19:59:06.521Z,10.77
2023-03-06T20:01:34.451Z,12.40
2023-03-06T20:04:01.671Z,12.00
2023-03-06T20:06:31.390Z,10.20
2023-03-06T20:08:58.144Z,12.52
2023-03-06T20:11:29.871Z,9.45
2023-03-06T20:13:58.770Z,8.48
2023-03-06T20:16:29.756Z,9.00
2023-03-06T20:18:59.060Z,8.07
2023-03-06T20:21:27.394Z,12.55
2023-03-06T20:23:54.965Z,8.95
2023-03-06T20:26:21.676Z,5.88
2023-03-06T20:28:49.122Z,8.57
2023-03-06T20:31:21.576Z,8.88
2023-03-06T20:33:51.292Z,16.05
2023-03-06T20:36:20.920Z,9.98
2023-03-06T20:38:48.021Z,8.40
2023-03-06T20:41:23.395Z,9.25
2023-03-06T20:43:50.762Z,9.05
2023-03-06T20:46:18.335Z,7.35
2023-03-06T20:48:48.684Z,7.22
2023-03-06T20:51:21.059Z,7.53
2023-03-06T20:53:49.370Z,5.32
2023-03-06T20:56:18.068Z,4.90
2023-03-06T20:58:44.962Z,13.77
2023-03-06T21:01:26.021Z,8.85
2023-03-06T21:03:53.265Z,7.50
2023-03-06T21:06:20.995Z,11.77
2023-03-06T21:08:47.895Z,12.68
2023-03-06T21:11:14.888Z,8.38
2023-03-06T21:13:42.068Z,11.30
2023-03-06T21:16:12.164Z,7.38
2023-03-06T21:18:40.044Z,7.50
2023-03-06T21:21:12.005Z,5.15
2023-03-06T21:23:39.095Z,12.00
2023-03-06T21:26:06.102Z,5.18
2023-03-06T21:28:34.121Z,3.83
2023-03-06T21:31:02.324Z,6.18
2023-03-06T21:33:29.116Z,9.75
2023-03-06T21:35:55.837Z,6.40
2023-03-06T21:38:22.605Z,9.85
2023-03-06T21:40:49.407Z,6.05
2023-03-06T21:43:17.620Z,8.00
2023-03-06T21:45:46.169Z,6.88
2023-03-06T21:48:14.236Z,8.23
2023-03-06T21:50:41.439Z,7.13
2023-03-06T21:53:08.860Z,7.90
2023-03-06T21:55:40.632Z,8.07
2023-03-06T21:58:08.333Z,9.18
2023-03-06T22:00:36.767Z,8.77
2023-03-06T22:03:04.838Z,14.77
2023-03-06T22:05:34.285Z,13.93
2023-03-06T22:08:01.024Z,10.73
2023-03-06T22:10:27.743Z,8.95
2023-03-06T22:12:54.393Z,11.27
2023-03-06T22:15:21.952Z,6.40
2023-03-06T22:17:48.844Z,13.48
2023-03-06T22:20:15.844Z,14.40
2023-03-06T22:22:43.712Z,8.98
2023-03-06T22:25:10.692Z,7.20
2023-03-06T22:27:37.534Z,11.00
2023-03-06T22:30:04.703Z,7.15
2023-03-06T22:32:31.455Z,9.48
2023-03-06T22:34:58.217Z,7.57
2023-03-06T22:37:24.892Z,8.10
2023-03-06T22:39:51.566Z,6.35
2023-03-06T22:42:18.329Z,10.73
2023-03-06T22:44:45.191Z,7.22
2023-03-06T22:47:13.496Z,4.88
2023-03-06T22:49:40.333Z,4.90
2023-03-06T22:52:07.169Z,7.00
2023-03-06T22:54:33.920Z,7.78
2023-03-06T22:57:00.677Z,4.05
2023-03-06T22:59:27.339Z,5.63
2023-03-06T23:01:54.089Z,4.70
2023-03-06T23:04:20.778Z,3.72
2023-03-06T23:06:47.693Z,5.72
2023-03-06T23:09:20.606Z,3.00
2023-03-06T23:11:51.182Z,4.97
2023-03-06T23:14:19.086Z,1.98
2023-03-06T23:16:46.235Z,2.00
2023-03-06T23:19:13.061Z,4.28
2023-03-06T23:21:39.776Z,3.88
2023-03-06T23:24:07.560Z,2.65
2023-03-06T23:26:34.426Z,3.35
2023-03-06T23:29:01.907Z,4.13
2023-03-06T23:31:30.263Z,6.80
2023-03-06T23:33:58.642Z,5.60
2023-03-06T23:36:25.374Z,11.93
2023-03-06T23:38:52.345Z,12.18
2023-03-06T23:41:20.941Z,8.90
2023-03-06T23:43:48.408Z,7.63
2023-03-06T23:46:15.594Z,8.30
2023-03-06T23:48:43.744Z,7.25
2023-03-06T23:51:16.329Z,7.28
2023-03-06T23:53:44.314Z,7.57
2023-03-06T23:56:11.346Z,3.53
2023-03-06T23:58:38.871Z,3.17
